Time;durP1;ratioP1;P1;durP2;ratioP2;P2;SDS_P1;SDS_P2;PMS_P1;PMS_P2;Temp;Humidity;BMP_temperature;BMP_pressure;BME280_temperature;BME280_humidity;BME280_pressure;Samples;Min_cycle;Max_cycle;Signal;HPM_P1;HPM_P2
2023/10/27 00:00:37;;;;;;;8.15;2.63;;;;;;;14.16;nan;99057.97;5017116;28;20028;-72
2023/10/27 00:03:02;;;;;;;5.57;2.60;;;;;;;14.18;nan;99058.47;5017557;28;20030;-72
2023/10/27 00:05:28;;;;;;;6.28;2.55;;;;;;;14.15;nan;99064.31;5022713;28;20116;-72
2023/10/27 00:07:53;;;;;;;7.43;3.10;;;;;;;14.11;nan;99055.38;5016796;28;20026;-74
2023/10/27 00:10:19;;;;;;;6.28;2.78;;;;;;;14.13;nan;99054.03;5016006;28;20025;-72
2023/10/27 00:12:44;;;;;;;7.35;3.42;;;;;;;13.90;nan;99023.03;5017850;28;20141;-71
2023/10/27 00:15:10;;;;;;;9.52;3.03;;;;;;;14.12;nan;99057.72;5016947;28;20018;-71
2023/10/27 00:17:35;;;;;;;6.28;2.92;;;;;;;13.86;nan;99022.00;5016102;28;20060;-71
2023/10/27 00:20:05;;;;;;;10.07;3.10;;;;;;;14.05;nan;99049.31;5016924;28;20742;-71
2023/10/27 00:22:32;;;;;;;8.63;3.33;;;;;;;13.91;nan;99029.88;5019137;28;20022;-71
2023/10/27 00:24:58;;;;;;;7.15;3.17;;;;;;;13.97;nan;99039.38;5014704;28;20030;-72
2023/10/27 00:27:24;;;;;;;9.07;3.80;;;;;;;14.05;nan;99059.91;5014191;28;20386;-71
2023/10/27 00:29:49;;;;;;;4.50;2.95;;;;;;;14.06;nan;99052.78;5017601;28;20029;-71
2023/10/27 00:32:14;;;;;;;8.68;3.28;;;;;;;13.79;nan;99015.19;5014479;28;20038;-71
2023/10/27 00:34:40;;;;;;;5.82;3.40;;;;;;;14.05;nan;99044.03;5015925;28;20026;-72
2023/10/27 00:37:05;;;;;;;7.82;3.13;;;;;;;13.95;nan;99034.34;5014262;28;20575;-68
2023/10/27 00:39:31;;;;;;;7.40;3.33;;;;;;;14.02;nan;99055.19;5015521;28;20955;-68
2023/10/27 00:41:56;;;;;;;6.68;3.30;;;;;;;13.96;nan;99040.44;5016351;28;20033;-68
2023/10/27 00:44:22;;;;;;;6.40;3.17;;;;;;;13.93;nan;99052.34;5017161;28;20550;-68
2023/10/27 00:46:49;;;;;;;8.43;3.85;;;;;;;13.83;nan;99026.00;5016368;28;20026;-68
2023/10/27 00:49:15;;;;;;;7.68;3.35;;;;;;;13.93;nan;99044.41;5016079;28;20099;-68
2023/10/27 00:51:41;;;;;;;6.78;3.38;;;;;;;13.89;nan;99037.34;5020228;28;20400;-68
2023/10/27 00:54:08;;;;;;;6.07;3.38;;;;;;;13.95;nan;99037.00;5020179;28;20082;-68
2023/10/27 00:56:36;;;;;;;6.03;3.38;;;;;;;13.88;nan;99027.81;5014993;28;20018;-68
2023/10/27 00:59:02;;;;;;;9.68;3.78;;;;;;;13.94;nan;99029.34;5014702;28;20057;-69
2023/10/27 01:01:27;;;;;;;7.25;4.05;;;;;;;13.89;nan;99022.25;5015456;28;20026;-68
2023/10/27 01:03:55;;;;;;;10.82;3.72;;;;;;;13.95;nan;99028.25;5015815;28;20094;-72
2023/10/27 01:06:22;;;;;;;6.95;3.55;;;;;;;13.92;nan;99010.31;5021402;28;20018;-73
2023/10/27 01:08:47;;;;;;;8.52;3.58;;;;;;;13.86;nan;99006.13;5014885;28;20034;-75
2023/10/27 01:11:13;;;;;;;7.97;3.78;;;;;;;13.86;nan;98998.19;5018550;28;20436;-75
2023/10/27 01:13:38;;;;;;;11.35;3.67;;;;;;;13.99;nan;99019.47;5018742;28;20032;-75
2023/10/27 01:16:04;;;;;;;11.40;3.97;;;;;;;13.83;nan;98995.03;5017407;28;20527;-73
2023/10/27 01:18:29;;;;;;;6.68;3.88;;;;;;;13.85;nan;98999.28;5018772;28;20434;-73
2023/10/27 01:20:55;;;;;;;9.05;3.95;;;;;;;13.94;nan;99008.19;5017699;28;20025;-75
2023/10/27 01:23:20;;;;;;;8.35;3.83;;;;;;;13.96;nan;99014.75;5014753;28;20018;-73
2023/10/27 01:25:46;;;;;;;8.98;4.03;;;;;;;13.98;nan;99011.81;5015873;28;20037;-73
2023/10/27 01:28:11;;;;;;;5.60;4.00;;;;;;;13.94;nan;99000.25;5015011;28;20028;-73
2023/10/27 01:30:37;;;;;;;7.90;3.70;;;;;;;14.04;nan;99018.66;5015343;28;20032;-72
2023/10/27 01:33:02;;;;;;;7.20;3.67;;;;;;;14.00;nan;99007.81;5013985;28;20022;-73
2023/10/27 01:35:27;;;;;;;11.15;3.97;;;;;;;13.98;nan;98995.94;5014275;28;20056;-74
2023/10/27 01:37:53;;;;;;;8.98;3.60;;;;;;;14.01;nan;98998.81;5016141;28;20049;-74
2023/10/27 01:40:19;;;;;;;11.10;4.60;;;;;;;14.05;nan;99001.69;5017466;28;20057;-74
2023/10/27 01:42:44;;;;;;;8.15;3.67;;;;;;;14.08;nan;99005.63;5014080;28;20072;-73
2023/10/27 01:45:11;;;;;;;11.07;4.30;;;;;;;13.93;nan;98980.91;5015286;28;20061;-73
2023/10/27 01:47:36;;;;;;;11.88;3.67;;;;;;;14.06;nan;98994.56;5014819;28;20125;-73
2023/10/27 01:50:01;;;;;;;7.00;4.22;;;;;;;14.09;nan;98996.63;5015162;28;20428;-74
2023/10/27 01:52:27;;;;;;;7.22;3.72;;;;;;;14.11;nan;99000.56;5018268;28;20479;-73
2023/10/27 01:54:53;;;;;;;8.82;4.07;;;;;;;14.16;nan;99003.16;5021165;28;20707;-73
2023/10/27 01:57:22;;;;;;;10.32;3.80;;;;;;;14.16;nan;99000.50;5014543;28;20026;-73
2023/10/27 01:59:48;;;;;;;10.65;3.90;;;;;;;14.15;nan;98985.69;5014121;28;20033;-74
2023/10/27 02:02:15;;;;;;;7.18;3.75;;;;;;;14.21;nan;98987.19;5020672;28;20091;-73
2023/10/27 02:04:41;;;;;;;9.55;3.83;;;;;;;14.17;nan;98980.09;5014642;28;20033;-73
2023/10/27 02:07:06;;;;;;;5.97;3.42;;;;;;;14.21;nan;98987.19;5013944;28;20518;-74
2023/10/27 02:09:31;;;;;;;6.57;3.70;;;;;;;14.17;nan;98974.81;5015178;28;20378;-75
2023/10/27 02:11:57;;;;;;;9.15;3.47;;;;;;;14.21;nan;98984.56;5010872;28;20090;-70
2023/10/27 02:14:24;;;;;;;7.47;3.53;;;;;;;14.13;nan;98966.66;5020346;28;20030;-68
2023/10/27 02:16:50;;;;;;;5.78;3.22;;;;;;;14.22;nan;98970.25;5015176;28;20021;-70
2023/10/27 02:19:15;;;;;;;8.02;3.60;;;;;;;14.25;nan;98977.63;5011373;28;20787;-70
2023/10/27 02:21:40;;;;;;;8.23;3.47;;;;;;;14.21;nan;98971.31;5014620;28;20122;-68
2023/10/27 02:24:06;;;;;;;9.00;3.70;;;;;;;14.33;nan;98988.66;5020358;28;20049;-69
2023/10/27 02:26:31;;;;;;;7.75;3.50;;;;;;;14.24;nan;98970.75;5011904;28;20022;-68
2023/10/27 02:28:57;;;;;;;7.25;3.28;;;;;;;14.29;nan;98969.09;5014629;28;20026;-68
2023/10/27 02:31:22;;;;;;;8.40;3.50;;;;;;;14.31;nan;98972.28;5013562;28;20029;-68
2023/10/27 02:33:48;;;;;;;9.65;3.40;;;;;;;14.41;nan;98982.72;5013322;28;20087;-69
2023/10/27 02:36:13;;;;;;;8.30;3.25;;;;;;;14.43;nan;98983.22;5015675;28;20048;-68
2023/10/27 02:38:39;;;;;;;5.75;3.15;;;;;;;14.40;nan;98979.28;5013931;28;20056;-69
2023/10/27 02:41:11;;;;;;;5.28;3.10;;;;;;;14.46;nan;98985.31;5013348;28;20092;-68
2023/10/27 02:43:38;;;;;;;7.38;3.35;;;;;;;14.38;nan;98970.84;5012511;28;20022;-68
2023/10/27 02:46:04;;;;;;;6.70;3.40;;;;;;;14.47;nan;98990.31;5013802;28;20121;-67
2023/10/27 02:48:30;;;;;;;9.07;3.40;;;;;;;14.48;nan;98985.81;5018276;28;20025;-68
2023/10/27 02:50:57;;;;;;;10.80;3.45;;;;;;;14.48;nan;98991.09;5014084;28;20104;-68
2023/10/27 02:53:23;;;;;;;7.88;3.15;;;;;;;14.49;nan;98999.88;5013148;28;20109;-69
2023/10/27 02:55:49;;;;;;;6.38;3.10;;;;;;;14.50;nan;98994.25;5015805;28;20112;-67
2023/10/27 02:58:15;;;;;;;4.95;2.85;;;;;;;14.45;nan;98971.28;5016984;28;20026;-68
2023/10/27 03:00:43;;;;;;;5.75;3.05;;;;;;;14.47;nan;98968.34;5017266;28;20037;-68
2023/10/27 03:03:12;;;;;;;6.10;3.55;;;;;;;14.52;nan;98981.53;5019655;28;20555;-70
2023/10/27 03:05:37;;;;;;;7.43;3.30;;;;;;;14.43;nan;98960.19;5017604;28;20992;-68
2023/10/27 03:08:03;;;;;;;8.80;3.03;;;;;;;14.53;nan;98967.19;5017788;28;20038;-68
2023/10/27 03:10:29;;;;;;;4.90;2.80;;;;;;;14.48;nan;98959.31;5016040;28;20026;-68
2023/10/27 03:12:54;;;;;;;10.23;3.17;;;;;;;14.49;nan;98952.19;5024686;28;20029;-68
2023/10/27 03:15:20;;;;;;;5.40;2.60;;;;;;;14.49;nan;98957.47;5019612;28;20025;-68
2023/10/27 03:17:45;;;;;;;5.22;2.60;;;;;;;14.52;nan;98962.19;5017027;28;20043;-67
2023/10/27 03:20:11;;;;;;;8.18;2.92;;;;;;;14.46;nan;98949.03;5021175;28;20021;-67
2023/10/27 03:22:36;;;;;;;7.22;3.00;;;;;;;14.54;nan;98952.94;5022176;28;20084;-73
2023/10/27 03:25:03;;;;;;;9.20;2.70;;;;;;;14.43;nan;98932.91;5016926;28;20036;-73
2023/10/27 03:27:30;;;;;;;6.43;2.65;;;;;;;14.51;nan;98950.00;5020930;28;20025;-73
2023/10/27 03:29:56;;;;;;;6.47;2.70;;;;;;;14.47;nan;98929.41;5016434;28;20522;-73
2023/10/27 03:32:22;;;;;;;6.30;2.58;;;;;;;14.56;nan;98942.84;5017097;28;20029;-73
2023/10/27 03:34:47;;;;;;;4.93;2.22;;;;;;;14.58;nan;98950.47;5017829;28;20071;-73
2023/10/27 03:37:13;;;;;;;5.13;2.35;;;;;;;14.40;nan;98925.53;5017450;28;20483;-73
2023/10/27 03:39:40;;;;;;;7.15;2.67;;;;;;;14.55;nan;98943.88;5020461;28;20472;-73
2023/10/27 03:42:07;;;;;;;5.00;2.38;;;;;;;14.41;nan;98919.97;5018758;28;20025;-72
2023/10/27 03:44:32;;;;;;;5.32;2.88;;;;;;;14.58;nan;98935.38;5019363;28;20030;-72
2023/10/27 03:46:58;;;;;;;6.63;3.10;;;;;;;14.48;nan;98919.59;5017233;28;20513;-73
2023/10/27 03:49:23;;;;;;;8.93;2.53;;;;;;;14.47;nan;98923.31;5017397;28;20107;-73
2023/10/27 03:51:49;;;;;;;5.07;2.67;;;;;;;14.39;nan;98902.75;5015548;28;20059;-74
2023/10/27 03:54:14;;;;;;;6.15;2.40;;;;;;;14.49;nan;98918.53;5017788;28;20034;-72
2023/10/27 03:56:40;;;;;;;5.80;2.60;;;;;;;14.57;nan;98928.50;5018651;28;20308;-75
2023/10/27 03:59:05;;;;;;;6.15;2.70;;;;;;;14.52;nan;98919.81;5014976;28;20029;-73
2023/10/27 04:01:31;;;;;;;7.13;3.05;;;;;;;14.55;nan;98914.75;5012591;28;20496;-72
2023/10/27 04:03:56;;;;;;;4.70;2.70;;;;;;;14.55;nan;98906.03;5018213;28;20033;-73
2023/10/27 04:06:22;;;;;;;7.68;2.97;;;;;;;14.43;nan;98885.25;5023617;28;20068;-73
2023/10/27 04:08:47;;;;;;;6.47;2.67;;;;;;;14.41;nan;98882.91;5012711;28;20383;-74
2023/10/27 04:11:13;;;;;;;4.72;2.20;;;;;;;14.46;nan;98893.41;5015514;28;20379;-73
2023/10/27 04:13:39;;;;;;;3.75;2.60;;;;;;;14.58;nan;98898.31;5020014;28;20048;-73
2023/10/27 04:16:04;;;;;;;7.28;3.22;;;;;;;14.62;nan;98907.22;5017177;28;20033;-73
2023/10/27 04:18:30;;;;;;;8.98;2.72;;;;;;;14.56;nan;98904.97;5014255;28;20100;-73
2023/10/27 04:20:55;;;;;;;5.38;2.25;;;;;;;14.51;nan;98884.59;5015689;28;20059;-72
2023/10/27 04:23:21;;;;;;;9.70;2.75;;;;;;;14.52;nan;98890.69;5017751;28;20080;-73
2023/10/27 04:25:47;;;;;;;4.40;2.63;;;;;;;14.54;nan;98896.53;5014443;28;20049;-71
2023/10/27 04:28:13;;;;;;;3.53;2.47;;;;;;;14.56;nan;98889.06;5014984;28;20030;-73
2023/10/27 04:30:38;;;;;;;6.93;2.70;;;;;;;14.53;nan;98882.44;5020561;28;20083;-72
2023/10/27 04:33:09;;;;;;;7.10;2.38;;;;;;;14.54;nan;98875.31;5022742;28;20057;-71
2023/10/27 04:35:35;;;;;;;4.43;2.25;;;;;;;14.56;nan;98881.13;5017013;28;20500;-72
2023/10/27 04:38:00;;;;;;;4.55;2.53;;;;;;;14.56;nan;98878.47;5015544;28;20038;-72
2023/10/27 04:40:28;;;;;;;3.05;2.30;;;;;;;14.47;nan;98865.06;5015310;28;20120;-72
2023/10/27 04:42:57;;;;;;;5.15;2.55;;;;;;;14.56;nan;98870.53;5012798;28;20052;-72
2023/10/27 04:45:22;;;;;;;7.13;2.55;;;;;;;14.46;nan;98855.53;5018361;28;20021;-72
2023/10/27 04:47:47;;;;;;;5.88;2.65;;;;;;;14.46;nan;98858.16;5017260;28;20487;-73
2023/10/27 04:50:13;;;;;;;4.55;2.60;;;;;;;14.55;nan;98876.88;5015981;28;20041;-71
2023/10/27 04:52:39;;;;;;;6.10;2.55;;;;;;;14.48;nan;98863.97;5015490;28;20701;-71
2023/10/27 04:55:06;;;;;;;5.20;2.45;;;;;;;14.53;nan;98863.13;5017024;28;20033;-72
2023/10/27 04:57:32;;;;;;;5.80;2.47;;;;;;;14.49;nan;98865.56;5013542;28;20567;-72
2023/10/27 04:59:58;;;;;;;4.82;2.70;;;;;;;14.44;nan;98861.13;5016435;28;20033;-70
2023/10/27 05:02:24;;;;;;;7.07;3.03;;;;;;;14.43;nan;98845.50;5019331;28;20029;-71
2023/10/27 05:04:49;;;;;;;7.05;2.63;;;;;;;14.43;nan;98859.53;5023347;28;20025;-71
2023/10/27 05:07:15;;;;;;;6.15;2.53;;;;;;;14.43;nan;98848.16;5016395;28;20032;-71
2023/10/27 05:09:40;;;;;;;5.70;2.50;;;;;;;14.42;nan;98847.38;5014877;28;20443;-71
2023/10/27 05:12:06;;;;;;;5.30;2.45;;;;;;;14.46;nan;98874.06;5015709;28;20022;-70
2023/10/27 05:14:32;;;;;;;6.20;2.70;;;;;;;14.31;nan;98842.53;5017932;28;20471;-70
2023/10/27 05:16:58;;;;;;;7.05;2.30;;;;;;;14.39;nan;98858.56;5013267;28;20079;-72
2023/10/27 05:19:24;;;;;;;6.90;2.70;;;;;;;14.20;nan;98823.38;5011308;28;20026;-72
2023/10/27 05:21:50;;;;;;;7.45;3.22;;;;;;;14.38;nan;98854.31;5017388;28;20035;-72
2023/10/27 05:24:15;;;;;;;6.05;2.60;;;;;;;14.29;nan;98834.84;5016369;28;20026;-72
2023/10/27 05:26:40;;;;;;;6.30;2.95;;;;;;;14.31;nan;98840.66;5014547;28;20057;-70
2023/10/27 05:29:06;;;;;;;5.72;3.05;;;;;;;14.35;nan;98849.59;5016092;28;21466;-71
2023/10/27 05:31:31;;;;;;;3.90;2.58;;;;;;;14.33;nan;98845.69;5016353;28;20029;-70
2023/10/27 05:33:57;;;;;;;4.63;2.65;;;;;;;14.32;nan;98833.50;5012118;28;20040;-70
2023/10/27 05:36:23;;;;;;;5.53;2.65;;;;;;;14.35;nan;98840.88;5013939;28;20045;-71
2023/10/27 05:38:48;;;;;;;5.18;2.60;;;;;;;14.35;nan;98840.88;5015337;28;20029;-67
2023/10/27 05:41:14;;;;;;;6.15;2.33;;;;;;;14.20;nan;98815.41;5021547;28;20053;-69
2023/10/27 05:43:40;;;;;;;4.07;2.33;;;;;;;14.33;nan;98833.22;5014963;28;20034;-68
2023/10/27 05:46:05;;;;;;;5.13;2.40;;;;;;;14.33;nan;98829.78;5016228;28;20103;-68
2023/10/27 05:48:31;;;;;;;6.22;2.08;;;;;;;14.30;nan;98833.03;5013597;28;20033;-68
2023/10/27 05:50:56;;;;;;;3.75;1.90;;;;;;;14.28;nan;98835.94;5015538;28;20037;-69
2023/10/27 05:53:21;;;;;;;3.13;2.28;;;;;;;14.31;nan;98845.16;5013107;28;20022;-69
2023/10/27 05:55:47;;;;;;;4.35;2.40;;;;;;;14.19;nan;98819.13;5015416;28;20475;-73
2023/10/27 05:58:14;;;;;;;10.73;2.58;;;;;;;14.17;nan;98815.97;5014177;28;20052;-73
2023/10/27 06:00:39;;;;;;;6.93;2.38;;;;;;;14.17;nan;98819.41;5014658;28;20034;-73
2023/10/27 06:03:05;;;;;;;6.00;1.80;;;;;;;14.20;nan;98823.38;5017790;28;20036;-72
2023/10/27 06:05:30;;;;;;;6.45;1.92;;;;;;;14.14;nan;98813.91;5020623;28;20052;-75
2023/10/27 06:07:55;;;;;;;3.30;1.63;;;;;;;14.20;nan;98823.38;5017873;28;20084;-72
2023/10/27 06:10:21;;;;;;;4.65;1.90;;;;;;;14.25;nan;98826.72;5013920;28;20546;-68
2023/10/27 06:12:46;;;;;;;4.22;1.80;;;;;;;14.20;nan;98810.91;5015200;28;20021;-68
2023/10/27 06:15:12;;;;;;;3.38;1.67;;;;;;;14.24;nan;98811.09;5016758;28;20099;-69
2023/10/27 06:17:37;;;;;;;3.13;1.80;;;;;;;14.25;nan;98804.75;5012304;28;20427;-69
2023/10/27 06:20:03;;;;;;;5.85;1.67;;;;;;;14.25;nan;98804.75;5012638;28;20036;-69
2023/10/27 06:22:29;;;;;;;4.82;1.90;;;;;;;14.18;nan;98789.22;5012634;28;20105;-69
2023/10/27 06:24:55;;;;;;;5.07;2.30;;;;;;;14.22;nan;98790.22;5014404;28;20033;-72
2023/10/27 06:27:20;;;;;;;6.22;1.92;;;;;;;14.21;nan;98783.34;5013252;28;20084;-72
2023/10/27 06:29:46;;;;;;;5.35;1.70;;;;;;;14.19;nan;98766.97;5013707;28;20044;-73
2023/10/27 06:32:11;;;;;;;4.53;1.63;;;;;;;14.15;nan;98771.28;5010957;28;20489;-71
2023/10/27 06:34:37;;;;;;;3.55;1.60;;;;;;;14.22;nan;98762.94;5013341;28;20063;-71
2023/10/27 06:37:03;;;;;;;5.72;2.00;;;;;;;14.16;nan;98751.66;5014240;28;20054;-71
2023/10/27 06:39:28;;;;;;;3.50;1.70;;;;;;;14.10;nan;98742.22;5017112;28;20128;-71
2023/10/27 06:41:54;;;;;;;4.38;2.10;;;;;;;14.16;nan;98746.38;5012279;28;20124;-71
2023/10/27 06:44:19;;;;;;;4.97;1.70;;;;;;;14.03;nan;98731.22;5014155;28;20030;-70
2023/10/27 06:46:45;;;;;;;4.95;1.80;;;;;;;14.30;nan;98780.06;5012774;28;20108;-71
2023/10/27 06:49:12;;;;;;;5.00;1.83;;;;;;;14.32;nan;98781.34;5012847;28;20052;-72
2023/10/27 06:51:37;;;;;;;3.33;1.77;;;;;;;14.37;nan;98780.47;5013779;28;20045;-72
2023/10/27 06:54:03;;;;;;;4.15;1.88;;;;;;;14.34;nan;98765.97;5012490;28;20083;-71
2023/10/27 06:56:28;;;;;;;7.75;2.35;;;;;;;14.42;nan;98773.22;5013692;28;21050;-72
2023/10/27 06:58:54;;;;;;;7.22;1.88;;;;;;;14.39;nan;98765.06;5014624;28;20037;-72
2023/10/27 07:01:19;;;;;;;5.65;1.88;;;;;;;14.45;nan;98755.97;5011442;28;20057;-71
2023/10/27 07:03:45;;;;;;;4.97;1.60;;;;;;;14.54;nan;98764.84;5015152;28;20034;-72
2023/10/27 07:06:11;;;;;;;3.33;1.40;;;;;;;14.58;nan;98738.56;5012432;28;20022;-72
2023/10/27 07:08:37;;;;;;;7.25;1.80;;;;;;;14.62;nan;98734.25;5013044;28;20387;-71
2023/10/27 07:11:03;;;;;;;2.97;1.20;;;;;;;14.67;nan;98718.25;5013386;28;20030;-72
2023/10/27 07:13:30;;;;;;;3.22;1.60;;;;;;;14.64;nan;98703.75;5013235;28;20100;-72
2023/10/27 07:15:55;;;;;;;3.63;1.50;;;;;;;14.56;nan;98685.13;5017922;28;20025;-71
2023/10/27 07:18:21;;;;;;;2.72;1.60;;;;;;;14.70;nan;98693.03;5013928;28;20068;-72
2023/10/27 07:20:47;;;;;;;2.83;1.40;;;;;;;14.81;nan;98699.72;5011324;28;20040;-72
2023/10/27 07:23:13;;;;;;;2.22;1.50;;;;;;;14.81;nan;98687.25;5019317;28;20025;-70
2023/10/27 07:25:38;;;;;;;3.50;1.33;;;;;;;14.84;nan;98673.44;5014377;28;20111;-73
2023/10/27 07:28:04;;;;;;;2.22;1.20;;;;;;;14.80;nan;98655.78;5014479;28;20030;-71
2023/10/27 07:30:30;;;;;;;6.13;1.25;;;;;;;14.82;nan;98649.09;5014519;28;20399;-73
2023/10/27 07:32:56;;;;;;;8.07;1.50;;;;;;;15.04;nan;98672.25;5012498;28;20033;-71
2023/10/27 07:35:24;;;;;;;9.10;1.77;;;;;;;15.49;nan;98743.16;5011955;28;20065;-71
2023/10/27 07:37:49;;;;;;;5.47;1.33;;;;;;;15.12;nan;98672.63;5014139;28;20044;-72
2023/10/27 07:40:17;;;;;;;3.03;1.10;;;;;;;15.22;nan;98681.13;5013922;28;20026;-72
2023/10/27 07:42:43;;;;;;;5.80;1.40;;;;;;;15.27;nan;98681.03;5016649;28;20030;-73
2023/10/27 07:45:08;;;;;;;6.00;1.50;;;;;;;15.21;nan;98676.16;5013376;28;20384;-73
2023/10/27 07:47:34;;;;;;;4.43;1.30;;;;;;;15.40;nan;98700.66;5019168;28;20598;-72
2023/10/27 07:50:05;;;;;;;4.30;1.30;;;;;;;15.40;nan;98684.75;5019357;28;20029;-72
2023/10/27 07:52:30;;;;;;;2.20;0.95;;;;;;;15.52;nan;98692.97;5015769;28;20022;-73
2023/10/27 07:54:55;;;;;;;5.70;1.30;;;;;;;15.53;nan;98678.59;5018897;28;20513;-72
2023/10/27 07:57:21;;;;;;;2.38;1.10;;;;;;;15.59;nan;98683.81;5017366;28;20072;-74
2023/10/27 07:59:47;;;;;;;4.53;1.30;;;;;;;15.61;nan;98678.97;5016637;28;20045;-73
2023/10/27 08:02:12;;;;;;;3.63;1.13;;;;;;;15.72;nan;98680.34;5027116;28;20092;-73
2023/10/27 08:04:38;;;;;;;5.57;1.20;;;;;;;15.79;nan;98685.25;5017314;28;20144;-73
2023/10/27 08:07:06;;;;;;;3.70;1.20;;;;;;;15.78;nan;98665.91;5016635;28;20079;-71
2023/10/27 08:09:32;;;;;;;2.35;1.00;;;;;;;15.81;nan;98659.19;5014183;28;20377;-72
2023/10/27 08:11:57;;;;;;;4.03;1.20;;;;;;;15.78;nan;98643.84;5018235;28;20029;-71
2023/10/27 08:14:23;;;;;;;2.72;1.10;;;;;;;15.87;nan;98636.75;5019011;28;20025;-72
2023/10/27 08:16:49;;;;;;;5.05;1.20;;;;;;;15.99;nan;98638.84;5014941;28;20104;-72
2023/10/27 08:19:14;;;;;;;7.25;1.33;;;;;;;16.01;nan;98645.41;5018131;28;20334;-71
2023/10/27 08:21:40;;;;;;;3.28;1.25;;;;;;;16.06;nan;98650.59;5020536;28;20627;-71
2023/10/27 08:24:06;;;;;;;3.00;1.10;;;;;;;16.11;nan;98637.22;5016387;28;20514;-72
2023/10/27 08:26:32;;;;;;;2.80;1.10;;;;;;;16.19;nan;98646.31;5016017;28;20021;-72
2023/10/27 08:28:57;;;;;;;3.85;1.17;;;;;;;16.17;nan;98629.91;5017177;28;20026;-71
2023/10/27 08:31:23;;;;;;;2.22;1.08;;;;;;;16.31;nan;98637.78;5016040;28;20630;-71
2023/10/27 08:33:48;;;;;;;4.90;1.10;;;;;;;16.35;nan;98639.50;5016320;28;20029;-72
2023/10/27 08:36:15;;;;;;;2.13;1.52;;;;;;;16.42;nan;98627.66;5019397;28;20038;-71
2023/10/27 08:38:41;;;;;;;1.88;0.98;;;;;;;16.53;nan;98629.72;5016908;28;20033;-71
2023/10/27 08:41:07;;;;;;;4.60;0.90;;;;;;;16.54;nan;98610.06;5014314;28;20503;-70
2023/10/27 08:43:34;;;;;;;4.82;1.10;;;;;;;16.64;nan;98594.91;5015775;28;20449;-71
2023/10/27 08:46:03;;;;;;;1.48;0.80;;;;;;;16.80;nan;98614.66;5015073;28;20029;-72
2023/10/27 08:48:29;;;;;;;1.33;0.90;;;;;;;16.79;nan;98600.59;5015988;28;20055;-72
2023/10/27 08:50:57;;;;;;;1.88;0.93;;;;;;;16.98;nan;98613.63;5021193;28;20053;-72
2023/10/27 08:53:23;;;;;;;1.60;0.80;;;;;;;17.07;nan;98603.00;5015499;28;20021;-71
2023/10/27 08:55:49;;;;;;;3.47;1.42;;;;;;;17.16;nan;98600.31;5017766;28;20025;-73
2023/10/27 08:58:15;;;;;;;3.45;1.20;;;;;;;17.20;nan;98594.06;5018166;28;20128;-72
2023/10/27 09:00:40;;;;;;;3.70;1.10;;;;;;;17.32;nan;98600.66;5014383;28;20033;-72
2023/10/27 09:03:18;;;;;;;3.55;1.17;;;;;;;17.40;nan;98597.19;5017252;28;20027;-71
2023/10/27 09:05:44;;;;;;;4.25;0.95;;;;;;;17.26;nan;98562.75;5015901;28;20028;-72
2023/10/27 09:08:10;;;;;;;3.90;1.23;;;;;;;17.53;nan;98596.25;5019208;28;20483;-72
2023/10/27 09:10:37;;;;;;;4.85;1.25;;;;;;;17.49;nan;98579.34;5015249;28;20515;-72
2023/10/27 09:13:04;;;;;;;3.53;1.15;;;;;;;17.59;nan;98589.66;5016108;28;20029;-73
2023/10/27 09:15:45;;;;;;;2.92;1.00;;;;;;;17.61;nan;98576.81;5015362;28;20076;-72
2023/10/27 09:18:12;;;;;;;1.95;0.93;;;;;;;17.73;nan;98573.50;5014587;28;20029;-72
2023/10/27 09:20:51;;;;;;;1.23;0.88;;;;;;;17.77;nan;98571.00;5016069;28;20029;-73
2023/10/27 09:23:16;;;;;;;;;;;;;;;17.86;nan;98571.78;5015930;28;20033;-72
2023/10/27 09:25:42;;;;;;;1.50;0.93;;;;;;;17.94;nan;98556.91;5016180;28;19917;-72
2023/10/27 09:28:08;;;;;;;5.97;1.23;;;;;;;17.96;nan;98552.81;5014005;28;20018;-73
2023/10/27 09:30:37;;;;;;;2.63;1.10;;;;;;;17.96;nan;98550.16;5016920;28;20025;-74
2023/10/27 09:33:18;;;;;;;3.22;1.05;;;;;;;18.02;nan;98543.53;5015737;28;20029;-72
2023/10/27 09:35:46;;;;;;;2.58;0.75;;;;;;;18.09;nan;98548.38;5018925;28;20447;-72
2023/10/27 09:38:13;;;;;;;3.67;1.02;;;;;;;18.19;nan;98544.56;5015263;28;20021;-71
2023/10/27 09:40:40;;;;;;;4.00;0.70;;;;;;;18.25;nan;98546.72;5021042;28;20017;-73
2023/10/27 09:43:20;;;;;;;4.10;1.00;;;;;;;18.28;nan;98535.44;5016013;28;20022;-73
2023/10/27 09:45:57;;;;;;;2.80;0.95;;;;;;;18.31;nan;98525.22;5014109;28;20868;-72
2023/10/27 09:48:25;;;;;;;2.50;0.70;;;;;;;18.23;nan;98505.53;5015881;28;20025;-72
2023/10/27 09:50:59;;;;;;;4.25;0.90;;;;;;;18.37;nan;98523.94;5013924;28;20034;-74
2023/10/27 09:53:27;;;;;;;3.08;1.10;;;;;;;18.34;nan;98517.38;5015911;28;20044;-72
2023/10/27 09:55:54;;;;;;;2.33;0.87;;;;;;;18.22;nan;98503.94;5022566;28;20029;-73
2023/10/27 09:58:21;;;;;;;1.42;0.90;;;;;;;18.35;nan;98518.94;5014305;28;20033;-73
2023/10/27 10:00:48;;;;;;;4.80;0.90;;;;;;;18.27;nan;98503.78;5014092;28;20029;-72
2023/10/27 10:03:15;;;;;;;3.85;1.10;;;;;;;18.34;nan;98508.59;5025079;28;20510;-73
2023/10/27 10:06:08;;;;;;;2.42;1.13;;;;;;;18.15;nan;98464.53;5013489;28;20120;-69
2023/10/27 10:08:34;;;;;;;3.00;1.00;;;;;;;18.26;nan;98481.69;5021180;28;20087;-69
2023/10/27 10:11:16;;;;;;;2.35;1.10;;;;;;;18.33;nan;98483.06;5017820;28;20535;-68
2023/10/27 10:13:42;;;;;;;3.63;1.10;;;;;;;18.33;nan;98478.50;5014452;28;20026;-69
2023/10/27 10:16:10;;;;;;;4.47;1.63;;;;;;;18.30;nan;98465.06;5014963;28;20036;-69
2023/10/27 10:18:36;;;;;;;1.43;0.90;;;;;;;18.43;nan;98472.78;5014185;28;20109;-69
2023/10/27 10:21:02;;;;;;;3.03;1.02;;;;;;;18.44;nan;98458.38;5016426;28;20105;-69
2023/10/27 10:23:37;;;;;;;4.50;1.30;;;;;;;18.53;nan;98460.19;5015186;28;20037;-68
2023/10/27 10:26:02;;;;;;;5.88;1.50;;;;;;;18.48;nan;98455.81;5015129;28;20029;-69
2023/10/27 10:28:30;;;;;;;2.40;1.00;;;;;;;18.50;nan;98441.06;5016409;28;20403;-69
2023/10/27 10:31:07;;;;;;;5.50;1.20;;;;;;;18.64;nan;98456.81;5013422;28;20029;-68
2023/10/27 10:33:34;;;;;;;5.78;1.00;;;;;;;18.67;nan;98445.47;5012851;28;20380;-69
2023/10/27 10:36:14;;;;;;;3.40;1.08;;;;;;;18.72;nan;98447.19;5015611;28;20485;-70
2023/10/27 10:38:43;;;;;;;2.53;1.33;;;;;;;18.69;nan;98432.63;5015933;28;20045;-68
2023/10/27 10:41:08;;;;;;;2.75;1.02;;;;;;;18.69;nan;98431.84;5013939;28;20054;-68
2023/10/27 10:43:36;;;;;;;5.47;1.63;;;;;;;18.71;nan;98424.28;5014068;28;20064;-69
2023/10/27 10:46:06;;;;;;;2.92;0.80;;;;;;;18.76;nan;98423.31;5012608;28;20072;-69
2023/10/27 10:48:39;;;;;;;4.15;1.17;;;;;;;18.75;nan;98405.75;5015099;28;20025;-68
2023/10/27 10:51:16;;;;;;;2.60;0.90;;;;;;;18.85;nan;98424.06;5012068;28;20553;-68
2023/10/27 10:53:53;;;;;;;2.72;1.08;;;;;;;18.91;nan;98412.88;5011051;28;20034;-69
2023/10/27 10:56:19;;;;;;;3.50;1.10;;;;;;;18.92;nan;98411.75;5012992;28;20022;-68
2023/10/27 10:58:45;;;;;;;2.50;1.08;;;;;;;18.91;nan;98390.72;5013739;28;20048;-68
2023/10/27 11:01:20;;;;;;;3.25;1.00;;;;;;;19.02;nan;98407.88;5012461;28;20030;-68
2023/10/27 11:03:51;;;;;;;3.13;1.35;;;;;;;18.99;nan;98402.44;5013568;28;20117;-68
2023/10/27 11:06:24;;;;;;;2.90;0.90;;;;;;;18.99;nan;98400.53;5012999;28;20020;-69
2023/10/27 11:08:50;;;;;;;3.17;1.02;;;;;;;19.09;nan;98394.00;5014572;28;20022;-68
2023/10/27 11:11:19;;;;;;;3.95;0.93;;;;;;;19.13;nan;98398.34;5015270;28;20045;-68
2023/10/27 11:13:49;;;;;;;;;;;;;;;19.21;nan;98404.69;5019447;28;20026;-69
2023/10/27 11:16:25;;;;;;;2.40;0.80;;;;;;;19.17;nan;98387.78;5013839;28;20596;-68
2023/10/27 11:19:02;;;;;;;2.85;0.90;;;;;;;19.28;nan;98406.84;5019167;28;20041;-68
2023/10/27 11:21:29;;;;;;;5.30;1.17;;;;;;;19.31;nan;98409.59;5016086;28;20052;-68
2023/10/27 11:23:55;;;;;;;3.33;0.85;;;;;;;19.30;nan;98408.06;5016204;28;20029;-70
2023/10/27 11:26:23;;;;;;;3.85;1.10;;;;;;;19.32;nan;98413.03;5016707;28;20025;-68
2023/10/27 11:28:49;;;;;;;4.80;1.00;;;;;;;19.33;nan;98404.72;5023778;28;20026;-67
2023/10/27 11:31:29;;;;;;;4.32;1.02;;;;;;;19.42;nan;98411.84;5016326;28;20136;-68
2023/10/27 11:34:11;;;;;;;4.35;1.00;;;;;;;19.44;nan;98423.75;5016968;28;20595;-68
2023/10/27 11:36:42;;;;;;;2.70;1.10;;;;;;;19.38;nan;98419.75;5015481;28;20045;-70
2023/10/27 11:39:18;;;;;;;5.15;1.13;;;;;;;19.48;nan;98421.97;5015032;28;20025;-69
2023/10/27 11:41:48;;;;;;;2.88;1.10;;;;;;;19.40;nan;98411.41;5017901;28;20033;-69
2023/10/27 11:44:13;;;;;;;4.15;1.10;;;;;;;19.51;nan;98423.19;5020722;28;20025;-69
2023/10/27 11:46:48;;;;;;;5.60;1.15;;;;;;;19.54;nan;98411.88;5015182;28;20079;-68
2023/10/27 11:49:14;;;;;;;5.18;1.58;;;;;;;19.55;nan;98424.09;5017383;28;20022;-68